Time;durP1;ratioP1;P1;durP2;ratioP2;P2;SDS_P1;SDS_P2;PMS_P1;PMS_P2;Temp;Humidity;BMP_temperature;BMP_pressure;BME280_temperature;BME280_humidity;BME280_pressure;Samples;Min_cycle;Max_cycle;Signal;HPM_P1;HPM_P2
2023/09/16 00:01:59;;;;;;;12.32;11.02;;;13.80;99.90;;;;;;5034357;28;20042;-84
2023/09/16 00:04:24;;;;;;;12.20;10.95;;;13.80;99.90;;;;;;5034036;28;20103;-85
2023/09/16 00:06:50;;;;;;;11.10;9.05;;;13.80;99.90;;;;;;5017418;28;20041;-85
2023/09/16 00:09:16;;;;;;;9.10;8.20;;;13.80;99.90;;;;;;5017446;28;20052;-85
2023/09/16 00:11:42;;;;;;;13.40;12.10;;;13.80;99.90;;;;;;5017297;28;21016;-85
2023/09/16 00:14:08;;;;;;;14.40;11.32;;;13.70;99.90;;;;;;5017572;28;20033;-84
2023/09/16 00:16:33;;;;;;;11.00;9.35;;;13.70;99.90;;;;;;5017503;28;20077;-84
2023/09/16 00:18:59;;;;;;;10.05;8.98;;;13.70;99.90;;;;;;5033627;28;20057;-85
2023/09/16 00:21:25;;;;;;;13.20;10.98;;;13.70;99.90;;;;;;5017502;28;20044;-85
2023/09/16 00:23:52;;;;;;;15.27;13.00;;;13.70;99.90;;;;;;5016940;28;20045;-85
2023/09/16 00:26:18;;;;;;;13.25;11.15;;;13.70;99.90;;;;;;5001261;28;20037;-85
2023/09/16 00:28:44;;;;;;;13.82;11.95;;;13.60;99.90;;;;;;5001489;28;20064;-84
2023/09/16 00:31:11;;;;;;;13.82;11.90;;;13.60;99.90;;;;;;5000849;28;20045;-85
2023/09/16 00:33:37;;;;;;;14.18;11.52;;;13.60;99.90;;;;;;5017846;28;20045;-85
2023/09/16 00:36:03;;;;;;;16.08;13.30;;;13.60;99.90;;;;;;5020781;28;20033;-84
2023/09/16 00:38:29;;;;;;;12.93;11.52;;;13.50;99.90;;;;;;5006016;28;20056;-84
2023/09/16 00:40:55;;;;;;;13.75;12.27;;;13.50;99.90;;;;;;5046898;28;20030;-84
2023/09/16 00:43:20;;;;;;;12.45;11.18;;;13.50;99.90;;;;;;4998257;28;20516;-85
2023/09/16 00:45:46;;;;;;;13.38;12.00;;;13.50;99.90;;;;;;5033913;28;20045;-85
2023/09/16 00:48:15;;;;;;;14.02;12.10;;;13.40;99.90;;;;;;5007003;28;20048;-85
2023/09/16 00:50:42;;;;;;;14.20;12.50;;;13.40;99.90;;;;;;5033502;28;20037;-85
2023/09/16 00:53:09;;;;;;;14.52;11.65;;;13.40;99.90;;;;;;5017255;28;20049;-85
2023/09/16 00:55:35;;;;;;;17.92;12.43;;;13.30;99.90;;;;;;5032789;28;20041;-84
2023/09/16 00:58:02;;;;;;;16.63;12.65;;;13.40;99.90;;;;;;5016845;28;20045;-85
2023/09/16 01:00:28;;;;;;;14.73;12.45;;;13.40;99.90;;;;;;5017215;28;20033;-85
2023/09/16 01:02:56;;;;;;;15.15;12.73;;;13.30;99.90;;;;;;5032982;28;20052;-85
2023/09/16 01:05:22;;;;;;;15.00;12.15;;;13.30;99.90;;;;;;5019994;28;20048;-85
2023/09/16 01:07:50;;;;;;;12.82;11.50;;;13.30;99.90;;;;;;5033091;28;20067;-85
2023/09/16 01:10:20;;;;;;;14.25;12.60;;;13.40;99.90;;;;;;5012308;28;20477;-85
2023/09/16 01:12:48;;;;;;;13.77;12.27;;;13.40;99.90;;;;;;5016602;28;20041;-85
2023/09/16 01:15:16;;;;;;;14.27;12.43;;;13.40;99.90;;;;;;5032589;28;20073;-85
2023/09/16 01:18:05;;;;;;;15.85;13.18;;;13.40;99.90;;;;;;5032798;28;20477;-86
2023/09/16 01:20:32;;;;;;;14.38;12.98;;;13.40;99.90;;;;;;5015483;28;20029;-85
2023/09/16 01:22:58;;;;;;;16.15;14.05;;;13.30;99.90;;;;;;5032874;28;20478;-85
2023/09/16 01:25:28;;;;;;;16.58;14.75;;;13.30;99.90;;;;;;5006561;28;20049;-85
2023/09/16 01:27:54;;;;;;;17.02;15.30;;;13.40;99.90;;;;;;5032738;28;20595;-85
2023/09/16 01:30:21;;;;;;;17.00;15.30;;;13.40;99.90;;;;;;5032473;28;20043;-85
2023/09/16 01:33:11;;;;;;;15.23;13.38;;;13.50;99.90;;;;;;5015716;28;20033;-85
2023/09/16 01:35:39;;;;;;;17.58;15.02;;;13.50;99.90;;;;;;5023253;28;20038;-85
2023/09/16 01:38:07;;;;;;;16.73;14.93;;;13.50;99.90;;;;;;4999912;28;20045;-85
2023/09/16 01:40:33;;;;;;;17.73;15.73;;;13.50;99.90;;;;;;5032432;28;20049;-85
2023/09/16 01:43:02;;;;;;;19.13;16.10;;;13.50;99.90;;;;;;5015938;28;20128;-85
2023/09/16 01:45:43;;;;;;;18.35;16.45;;;13.60;99.90;;;;;;5016225;28;20053;-85
2023/09/16 01:48:09;;;;;;;20.77;18.48;;;13.60;99.90;;;;;;5032191;28;20046;-85
2023/09/16 01:50:35;;;;;;;19.52;16.55;;;13.60;99.90;;;;;;5030406;28;20080;-85
2023/09/16 01:53:01;;;;;;;19.23;16.58;;;13.60;99.90;;;;;;5032681;28;20037;-85
2023/09/16 01:55:27;;;;;;;15.60;13.98;;;13.70;99.90;;;;;;5029111;28;20069;-85
2023/09/16 01:57:53;;;;;;;16.88;15.07;;;13.70;99.90;;;;;;5034995;28;20036;-85
2023/09/16 02:00:19;;;;;;;18.27;16.25;;;13.60;99.90;;;;;;5017888;28;20049;-85
2023/09/16 02:02:45;;;;;;;18.70;16.70;;;13.50;99.90;;;;;;5011912;28;20103;-85
2023/09/16 02:05:10;;;;;;;19.83;17.73;;;13.50;99.90;;;;;;5015721;28;20428;-85
2023/09/16 02:07:36;;;;;;;18.77;16.83;;;13.50;99.90;;;;;;5000359;28;20559;-85
2023/09/16 02:10:03;;;;;;;17.63;15.75;;;13.50;99.90;;;;;;4988558;28;20092;-85
2023/09/16 02:12:29;;;;;;;22.02;19.63;;;13.50;99.90;;;;;;5031046;28;20053;-85
2023/09/16 02:14:54;;;;;;;18.15;16.25;;;13.50;99.90;;;;;;4994347;28;20038;-85
2023/09/16 02:17:20;;;;;;;18.55;16.67;;;13.50;99.90;;;;;;5006701;28;20845;-85
2023/09/16 02:19:46;;;;;;;18.20;16.35;;;13.50;99.90;;;;;;5007211;28;20131;-85
2023/09/16 02:22:12;;;;;;;19.48;16.02;;;13.50;99.90;;;;;;5015035;28;20076;-85
2023/09/16 02:24:38;;;;;;;19.65;17.65;;;13.50;99.90;;;;;;5015387;28;20500;-85
2023/09/16 02:27:04;;;;;;;16.20;14.52;;;13.50;99.90;;;;;;4997278;28;20050;-85
2023/09/16 02:29:33;;;;;;;17.85;15.95;;;13.50;99.90;;;;;;5014528;28;20045;-85
2023/09/16 02:31:58;;;;;;;18.63;16.63;;;13.50;99.90;;;;;;5023801;28;20057;-85
2023/09/16 02:34:24;;;;;;;19.23;17.23;;;13.50;99.90;;;;;;4993557;28;20421;-85
2023/09/16 02:36:50;;;;;;;19.42;17.35;;;13.50;99.90;;;;;;5006569;28;20045;-85
2023/09/16 02:39:15;;;;;;;23.20;20.10;;;13.50;99.90;;;;;;5015157;28;20042;-85
2023/09/16 02:41:41;;;;;;;22.25;18.27;;;13.40;99.90;;;;;;5030372;28;20057;-85
2023/09/16 02:44:07;;;;;;;20.10;18.00;;;13.50;99.90;;;;;;5005657;28;20053;-85
2023/09/16 02:46:33;;;;;;;18.77;16.98;;;13.50;99.90;;;;;;5000866;28;20037;-85
2023/09/16 02:49:02;;;;;;;19.48;17.40;;;13.50;99.90;;;;;;5030646;28;20064;-85
2023/09/16 02:51:29;;;;;;;19.67;17.60;;;13.50;99.90;;;;;;5014866;28;20033;-85
2023/09/16 02:53:55;;;;;;;21.45;19.15;;;13.50;99.90;;;;;;5002048;28;20128;-85
2023/09/16 02:56:20;;;;;;;22.83;20.23;;;13.50;99.90;;;;;;5010391;28;20041;-84
2023/09/16 02:58:46;;;;;;;19.30;17.27;;;13.50;99.90;;;;;;5049888;28;20038;-84
2023/09/16 03:01:12;;;;;;;19.90;17.83;;;13.50;99.90;;;;;;5016546;28;20051;-85
2023/09/16 03:03:38;;;;;;;21.33;19.13;;;13.50;99.90;;;;;;4998185;28;20036;-85
2023/09/16 03:06:03;;;;;;;24.23;21.13;;;13.50;99.90;;;;;;5014654;28;20397;-85
2023/09/16 03:08:29;;;;;;;21.45;19.10;;;13.50;99.90;;;;;;5014694;28;20048;-85
2023/09/16 03:11:00;;;;;;;20.92;18.27;;;13.50;99.90;;;;;;5014372;28;20033;-85
2023/09/16 03:13:26;;;;;;;19.77;17.83;;;13.50;99.90;;;;;;5004596;28;20057;-85
2023/09/16 03:16:15;;;;;;;19.33;17.33;;;13.50;99.90;;;;;;4998474;28;20033;-85
2023/09/16 03:18:49;;;;;;;18.42;16.52;;;13.40;99.90;;;;;;5015131;28;20041;-85
2023/09/16 03:21:16;;;;;;;18.83;16.92;;;13.40;99.90;;;;;;4991353;28;20122;-85
2023/09/16 03:23:42;;;;;;;18.83;17.02;;;13.30;99.90;;;;;;5014825;28;20575;-85
2023/09/16 03:26:10;;;;;;;18.80;17.00;;;13.30;99.90;;;;;;5017981;28;20134;-85
2023/09/16 03:28:41;;;;;;;18.13;16.23;;;13.30;99.90;;;;;;5009494;28;20065;-85
2023/09/16 03:31:07;;;;;;;19.50;17.50;;;13.30;99.90;;;;;;5031690;28;20103;-85
2023/09/16 03:33:33;;;;;;;21.05;18.85;;;13.30;99.90;;;;;;5034715;28;20057;-85
2023/09/16 03:35:59;;;;;;;26.17;22.23;;;13.30;99.90;;;;;;5001991;28;20037;-85
2023/09/16 03:38:29;;;;;;;22.23;19.88;;;13.30;99.90;;;;;;5018318;28;20128;-85
2023/09/16 03:40:56;;;;;;;27.63;23.15;;;13.40;99.90;;;;;;5034775;28;20091;-85
2023/09/16 03:43:23;;;;;;;21.60;19.08;;;13.40;99.90;;;;;;5034888;28;20046;-85
2023/09/16 03:45:49;;;;;;;21.98;19.17;;;13.40;99.90;;;;;;5002131;28;20045;-85
2023/09/16 03:48:14;;;;;;;20.83;18.63;;;13.40;99.90;;;;;;5026491;28;20068;-85
2023/09/16 03:50:40;;;;;;;20.10;18.00;;;13.40;99.90;;;;;;5034596;28;20041;-85
2023/09/16 03:53:06;;;;;;;21.98;17.92;;;13.40;99.90;;;;;;5034798;28;20037;-85
2023/09/16 03:55:33;;;;;;;20.08;17.98;;;13.30;99.90;;;;;;5034629;28;20034;-85
2023/09/16 03:58:00;;;;;;;21.33;19.00;;;13.30;99.90;;;;;;5018227;28;20110;-85
2023/09/16 04:00:26;;;;;;;20.63;18.52;;;13.30;99.90;;;;;;5002188;28;20112;-85
2023/09/16 04:02:52;;;;;;;18.48;16.58;;;13.30;99.90;;;;;;5018057;28;20153;-85
2023/09/16 04:05:18;;;;;;;15.20;13.80;;;13.30;99.90;;;;;;5018239;28;20042;-86
2023/09/16 04:07:43;;;;;;;23.92;21.27;;;13.30;99.90;;;;;;5001651;28;20045;-85
2023/09/16 04:10:11;;;;;;;22.27;19.95;;;13.30;99.90;;;;;;5018021;28;20412;-85
2023/09/16 04:12:37;;;;;;;20.90;18.83;;;13.30;99.90;;;;;;5002081;28;20079;-85
2023/09/16 04:15:03;;;;;;;17.20;15.40;;;13.30;99.90;;;;;;5018486;28;20481;-85
2023/09/16 04:17:30;;;;;;;22.60;13.88;;;13.30;99.90;;;;;;5034086;28;20076;-85
2023/09/16 04:19:56;;;;;;;19.50;17.50;;;13.20;99.90;;;;;;5033961;28;20046;-85
2023/09/16 04:22:21;;;;;;;18.90;17.00;;;13.10;99.90;;;;;;5034333;28;20058;-85
2023/09/16 04:24:47;;;;;;;18.63;16.83;;;13.10;99.90;;;;;;5031372;28;20521;-85
2023/09/16 04:27:13;;;;;;;19.55;17.52;;;13.10;99.90;;;;;;5012202;28;20046;-85
2023/09/16 04:29:38;;;;;;;21.10;18.90;;;13.00;99.90;;;;;;5024634;28;20045;-85
2023/09/16 04:32:04;;;;;;;77.07;23.15;;;13.00;99.90;;;;;;4999537;28;20390;-85
2023/09/16 04:34:32;;;;;;;19.25;16.27;;;12.90;99.90;;;;;;5033769;28;20042;-85
2023/09/16 04:36:59;;;;;;;80.75;25.13;;;12.80;99.90;;;;;;5016496;28;20056;-85
2023/09/16 04:39:26;;;;;;;20.55;18.48;;;12.70;99.90;;;;;;5014214;28;20128;-85
2023/09/16 04:41:53;;;;;;;22.98;20.67;;;12.70;99.90;;;;;;5031264;28;20050;-85
2023/09/16 04:44:23;;;;;;;24.08;21.20;;;12.70;99.90;;;;;;5000723;28;20041;-85
2023/09/16 04:46:53;;;;;;;23.25;20.75;;;12.70;99.90;;;;;;5011986;28;20080;-85
2023/09/16 04:49:19;;;;;;;22.50;20.10;;;12.70;99.90;;;;;;5028218;28;20033;-85
2023/09/16 04:51:45;;;;;;;21.73;19.42;;;12.70;99.90;;;;;;4984268;28;20123;-85
2023/09/16 04:54:11;;;;;;;21.58;18.95;;;12.70;99.90;;;;;;5016528;28;20497;-85
2023/09/16 04:56:37;;;;;;;20.88;18.67;;;12.70;99.90;;;;;;5015300;28;20033;-85
2023/09/16 04:59:04;;;;;;;21.77;18.20;;;12.70;99.90;;;;;;5033415;28;20041;-85
2023/09/16 05:01:29;;;;;;;15.55;13.80;;;12.70;99.90;;;;;;5004394;28;20042;-86
2023/09/16 05:03:56;;;;;;;18.83;16.98;;;12.70;99.90;;;;;;5016684;28;20044;-85
2023/09/16 05:06:22;;;;;;;18.27;16.38;;;12.60;99.90;;;;;;5015608;28;20049;-85
2023/09/16 05:08:48;;;;;;;19.15;17.05;;;12.60;99.90;;;;;;5029927;28;20037;-85
2023/09/16 05:11:14;;;;;;;16.95;15.20;;;12.60;99.90;;;;;;5030138;28;20111;-85
2023/09/16 05:13:41;;;;;;;17.60;15.80;;;12.60;99.90;;;;;;5039909;28;20041;-86
2023/09/16 05:16:09;;;;;;;19.67;17.67;;;12.60;99.90;;;;;;5047733;28;20092;-84
2023/09/16 05:18:35;;;;;;;18.90;16.88;;;12.60;99.90;;;;;;5020772;28;20052;-85
2023/09/16 05:21:01;;;;;;;21.95;17.52;;;12.60;99.90;;;;;;5016198;28;20120;-86
2023/09/16 05:23:27;;;;;;;17.98;16.10;;;12.60;99.90;;;;;;5000426;28;20129;-85
2023/09/16 05:25:53;;;;;;;17.85;15.98;;;12.60;99.90;;;;;;5015814;28;20075;-85
2023/09/16 05:28:18;;;;;;;17.90;16.10;;;12.60;99.90;;;;;;5015962;28;20037;-85
2023/09/16 05:30:44;;;;;;;21.77;18.23;;;12.50;99.90;;;;;;5032667;28;20088;-85
2023/09/16 05:33:13;;;;;;;20.83;18.63;;;12.50;99.90;;;;;;4997545;28;20081;-85
2023/09/16 05:35:40;;;;;;;20.30;18.17;;;12.50;99.90;;;;;;5006083;28;20489;-85
2023/09/16 05:38:07;;;;;;;20.60;18.45;;;12.50;99.90;;;;;;5016069;28;20102;-85
2023/09/16 05:40:36;;;;;;;20.05;17.95;;;12.60;99.90;;;;;;5032615;28;20492;-85
2023/09/16 05:43:01;;;;;;;22.65;20.25;;;12.50;99.90;;;;;;5016172;28;20140;-86
2023/09/16 05:45:27;;;;;;;20.67;18.50;;;12.60;99.90;;;;;;5016334;28;20132;-86
2023/09/16 05:47:54;;;;;;;20.63;18.40;;;12.60;99.90;;;;;;5029957;28;20141;-86
2023/09/16 05:50:20;;;;;;;20.52;17.85;;;12.60;99.90;;;;;;4997512;28;20128;-86
2023/09/16 05:52:46;;;;;;;24.40;21.42;;;12.60;99.90;;;;;;5016671;28;20125;-86
2023/09/16 05:55:12;;;;;;;25.13;22.42;;;12.60;99.90;;;;;;4994906;28;20038;-85
2023/09/16 05:57:37;;;;;;;25.00;21.42;;;12.60;99.90;;;;;;5025441;28;20030;-86
2023/09/16 06:00:04;;;;;;;25.17;22.45;;;12.70;99.90;;;;;;5031833;28;20042;-85
2023/09/16 06:02:30;;;;;;;25.60;21.35;;;12.70;99.90;;;;;;4969834;28;20393;-85
2023/09/16 06:04:55;;;;;;;23.92;20.17;;;12.80;99.90;;;;;;4977415;28;20045;-84
2023/09/16 06:07:25;;;;;;;25.55;22.15;;;12.90;99.90;;;;;;4998622;28;20044;-86
2023/09/16 06:09:51;;;;;;;22.48;20.08;;;12.90;99.90;;;;;;4979032;28;20045;-85
2023/09/16 06:12:17;;;;;;;24.85;20.48;;;13.00;99.90;;;;;;5028646;28;20037;-86
2023/09/16 06:14:42;;;;;;;29.70;25.58;;;13.00;99.90;;;;;;5013296;28;20397;-85
2023/09/16 06:17:08;;;;;;;32.15;26.60;;;13.10;99.90;;;;;;5013106;28;20596;-85
2023/09/16 06:19:35;;;;;;;31.25;27.45;;;13.20;99.90;;;;;;5013253;28;20064;-85
2023/09/16 06:22:01;;;;;;;33.00;28.10;;;13.30;99.90;;;;;;4998516;28;20119;-85
2023/09/16 06:24:26;;;;;;;31.83;27.90;;;13.40;99.90;;;;;;4998062;28;20464;-85
2023/09/16 06:26:52;;;;;;;31.33;28.02;;;13.40;99.90;;;;;;5031001;28;20037;-85
2023/09/16 06:29:18;;;;;;;36.78;30.55;;;13.50;99.90;;;;;;5008899;28;20038;-85
2023/09/16 06:31:44;;;;;;;34.10;30.40;;;13.60;99.90;;;;;;5003534;28;20042;-85
2023/09/16 06:34:09;;;;;;;34.35;29.63;;;13.60;99.90;;;;;;5013871;28;20060;-85
2023/09/16 06:36:38;;;;;;;32.90;29.25;;;13.70;99.90;;;;;;5014134;28;20047;-85
2023/09/16 06:39:07;;;;;;;36.33;30.42;;;13.80;99.90;;;;;;5001824;28;20413;-85
2023/09/16 06:41:33;;;;;;;33.90;28.88;;;13.90;99.90;;;;;;5008302;28;20037;-85
2023/09/16 06:43:59;;;;;;;35.63;29.40;;;14.00;99.90;;;;;;5032324;28;20111;-84
2023/09/16 06:46:25;;;;;;;36.08;30.38;;;14.00;99.90;;;;;;5015687;28;20436;-84
2023/09/16 06:48:50;;;;;;;33.70;28.63;;;14.10;99.90;;;;;;5016134;28;20056;-84
2023/09/16 06:51:16;;;;;;;33.20;28.58;;;14.20;99.90;;;;;;5016400;28;20155;-84
2023/09/16 06:53:42;;;;;;;33.30;29.58;;;14.30;99.90;;;;;;5015515;28;20041;-84
2023/09/16 06:56:08;;;;;;;30.65;27.33;;;14.40;99.90;;;;;;5015842;28;20048;-84
2023/09/16 06:58:34;;;;;;;31.90;28.13;;;14.50;99.90;;;;;;5031468;28;20041;-84
2023/09/16 07:01:10;;;;;;;34.85;27.75;;;14.60;99.90;;;;;;5015185;28;20037;-84
2023/09/16 07:03:36;;;;;;;31.80;26.85;;;14.70;99.90;;;;;;5015777;28;20034;-84
2023/09/16 07:06:01;;;;;;;28.92;25.75;;;14.70;99.90;;;;;;4988998;28;20042;-84
2023/09/16 07:08:27;;;;;;;28.58;25.50;;;14.80;99.90;;;;;;5012025;28;20105;-84
2023/09/16 07:10:54;;;;;;;28.80;25.80;;;14.80;99.90;;;;;;5014841;28;20140;-84
2023/09/16 07:13:20;;;;;;;29.73;25.15;;;14.90;99.90;;;;;;4998631;28;20038;-84
2023/09/16 07:15:53;;;;;;;27.63;23.35;;;15.00;99.90;;;;;;5013637;28;20033;-84
2023/09/16 07:18:19;;;;;;;28.73;25.80;;;15.10;99.90;;;;;;5014221;28;20452;-84
2023/09/16 07:20:45;;;;;;;28.30;24.55;;;15.10;99.90;;;;;;4998918;28;20065;-84
2023/09/16 07:23:11;;;;;;;27.73;23.60;;;15.20;99.90;;;;;;5015039;28;20102;-84
2023/09/16 07:25:36;;;;;;;27.77;23.88;;;15.30;99.90;;;;;;5015329;28;20053;-85
2023/09/16 07:28:04;;;;;;;27.73;23.83;;;15.30;99.90;;;;;;4995762;28;20041;-84
2023/09/16 07:30:30;;;;;;;26.83;23.40;;;15.30;99.90;;;;;;4995788;28;20512;-84
2023/09/16 07:32:56;;;;;;;27.27;24.38;;;15.40;99.90;;;;;;4995802;28;20042;-85
2023/09/16 07:35:22;;;;;;;29.23;26.02;;;15.40;99.90;;;;;;5000480;28;20101;-83
2023/09/16 07:37:50;;;;;;;29.27;25.02;;;15.50;99.90;;;;;;5033830;28;20026;-84
2023/09/16 07:40:16;;;;;;;27.08;24.17;;;15.50;99.90;;;;;;5021059;28;20064;-84
2023/09/16 07:42:41;;;;;;;26.20;23.05;;;15.60;99.90;;;;;;4996981;28;20081;-85
2023/09/16 07:45:08;;;;;;;26.65;21.98;;;15.70;99.90;;;;;;4997094;28;20053;-84
2023/09/16 07:47:33;;;;;;;26.02;23.30;;;15.70;99.90;;;;;;5011875;28;20076;-85
2023/09/16 07:49:59;;;;;;;25.80;23.05;;;15.80;99.90;;;;;;5029078;28;20444;-85
2023/09/16 07:53:02;;;;;;;27.70;23.50;;;15.80;99.90;;;;;;5013056;28;20168;-85
2023/09/16 07:55:28;;;;;;;25.65;22.88;;;15.80;99.90;;;;;;5012278;28;20041;-85
2023/09/16 07:57:54;;;;;;;25.77;22.70;;;15.80;99.90;;;;;;5010661;28;20052;-85
2023/09/16 08:00:19;;;;;;;25.70;23.13;;;15.90;99.90;;;;;;5029839;28;20049;-85
2023/09/16 08:02:45;;;;;;;25.17;22.55;;;15.90;99.90;;;;;;5009352;28;20080;-84
2023/09/16 08:05:11;;;;;;;25.45;22.75;;;16.00;99.90;;;;;;5014726;28;20037;-85
2023/09/16 08:07:36;;;;;;;24.15;20.92;;;16.00;99.90;;;;;;5012659;28;20073;-85
2023/09/16 08:10:03;;;;;;;28.35;22.25;;;16.10;99.90;;;;;;5013901;28;20087;-85
2023/09/16 08:12:29;;;;;;;24.50;21.90;;;16.10;99.90;;;;;;4970035;28;20397;-85
2023/09/16 08:14:54;;;;;;;27.23;24.50;;;16.20;99.90;;;;;;4977980;28;20045;-85
2023/09/16 08:17:20;;;;;;;28.60;24.83;;;16.30;99.90;;;;;;5011134;28;20144;-84
2023/09/16 08:19:46;;;;;;;27.35;23.38;;;16.50;99.90;;;;;;5015966;28;20033;-85
2023/09/16 08:22:12;;;;;;;25.17;22.50;;;16.60;99.90;;;;;;5016441;28;20656;-85
2023/09/16 08:24:37;;;;;;;25.00;22.40;;;16.80;99.90;;;;;;4999622;28;20084;-86
2023/09/16 08:27:03;;;;;;;21.77;19.45;;;17.00;99.90;;;;;;5010913;28;20619;-85
2023/09/16 08:29:29;;;;;;;21.50;19.33;;;17.30;99.90;;;;;;5016004;28;20045;-87
2023/09/16 08:31:55;;;;;;;23.23;19.38;;;17.50;99.90;;;;;;5016567;28;20378;-86
2023/09/16 08:34:20;;;;;;;21.60;19.15;;;17.60;99.90;;;;;;4997124;28;20047;-85
2023/09/16 08:36:46;;;;;;;21.15;18.40;;;17.60;99.90;;;;;;5032884;28;20045;-85
2023/09/16 08:39:12;;;;;;;18.98;16.98;;;17.70;99.90;;;;;;5002882;28;20104;-85
2023/09/16 08:42:11;;;;;;;20.63;18.42;;;17.80;99.90;;;;;;5035276;28;20116;-85
2023/09/16 08:44:42;;;;;;;19.58;17.52;;;17.90;99.90;;;;;;5008109;28;20054;-85
2023/09/16 08:47:14;;;;;;;20.85;18.65;;;18.10;99.90;;;;;;5005701;28;20038;-85
2023/09/16 08:49:45;;;;;;;20.88;18.20;;;18.30;99.90;;;;;;5016558;28;20041;-85
2023/09/16 08:52:16;;;;;;;20.15;17.10;;;18.50;99.90;;;;;;5016879;28;20073;-85
2023/09/16 08:54:45;;;;;;;20.63;18.15;;;18.60;99.90;;;;;;5015732;28;20033;-85
2023/09/16 08:57:12;;;;;;;21.17;18.02;;;18.70;99.90;;;;;;5029823;28;20831;-85
2023/09/16 08:59:41;;;;;;;20.38;18.27;;;18.80;99.90;;;;;;5031179;28;20037;-84
2023/09/16 09:02:09;;;;;;;17.88;15.98;;;18.80;99.90;;;;;;5001454;28;20045;-85
2023/09/16 09:04:36;;;;;;;17.25;15.23;;;18.90;99.90;;;;;;5016677;28;20481;-85
2023/09/16 09:07:02;;;;;;;18.45;16.38;;;19.00;99.90;;;;;;4989883;28;20075;-85
2023/09/16 09:09:29;;;;;;;17.08;15.05;;;19.10;99.90;;;;;;4996932;28;20049;-85
2023/09/16 09:11:57;;;;;;;15.63;13.73;;;19.30;99.90;;;;;;5011079;28;20073;-85
2023/09/16 09:14:23;;;;;;;15.52;13.88;;;19.40;99.90;;;;;;5032995;28;21603;-85
2023/09/16 09:16:51;;;;;;;16.77;14.35;;;19.60;99.90;;;;;;5016258;28;20041;-85
2023/09/16 09:19:20;;;;;;;17.33;15.52;;;19.70;99.90;;;;;;5016533;28;20382;-85
2023/09/16 09:21:47;;;;;;;17.13;15.32;;;19.90;99.90;;;;;;5020600;28;20037;-84
2023/09/16 09:24:13;;;;;;;19.67;16.15;;;19.90;99.90;;;;;;5016322;28;20048;-84
2023/09/16 09:26:38;;;;;;;19.52;16.30;;;20.00;99.90;;;;;;4999659;28;20473;-84
2023/09/16 09:29:09;;;;;;;17.75;15.85;;;20.10;99.90;;;;;;5016333;28;20057;-85
2023/09/16 09:31:35;;;;;;;17.33;15.38;;;20.20;99.90;;;;;;5007653;28;20049;-85
2023/09/16 09:34:01;;;;;;;16.88;15.18;;;20.40;99.90;;;;;;5003640;28;20033;-85
2023/09/16 09:36:32;;;;;;;16.85;15.00;;;20.50;99.90;;;;;;5032747;28;20033;-85
2023/09/16 09:38:58;;;;;;;17.15;15.30;;;20.60;99.90;;;;;;5015962;28;20044;-85
2023/09/16 09:41:24;;;;;;;17.85;15.60;;;20.60;99.90;;;;;;5031969;28;20037;-85
2023/09/16 09:43:52;;;;;;;15.43;13.82;;;20.40;99.90;;;;;;5015117;28;20061;-85
2023/09/16 09:46:20;;;;;;;15.77;13.98;;;20.40;99.90;;;;;;5031102;28;20508;-86
2023/09/16 09:48:46;;;;;;;14.90;13.30;;;20.40;99.90;;;;;;5010295;28;20042;-85
2023/09/16 09:51:16;;;;;;;17.15;14.15;;;20.40;99.90;;;;;;4995708;28;20850;-85
2023/09/16 09:53:47;;;;;;;16.77;14.50;;;20.60;99.90;;;;;;5016485;28;20038;-85
2023/09/16 09:56:13;;;;;;;15.38;13.85;;;20.70;99.90;;;;;;5021403;28;20046;-81
2023/09/16 09:58:40;;;;;;;15.40;13.55;;;20.80;99.90;;;;;;5009400;28;20398;-84
2023/09/16 10:01:07;;;;;;;14.50;13.10;;;21.00;99.90;;;;;;5015141;28;20041;-85
2023/09/16 10:03:33;;;;;;;13.52;11.88;;;21.10;99.90;;;;;;5014757;28;20711;-86
2023/09/16 10:06:16;;;;;;;13.10;11.68;;;21.20;99.90;;;;;;5015436;28;20115;-86
2023/09/16 10:08:42;;;;;;;13.82;11.15;;;21.20;99.90;;;;;;5015712;28;20034;-84
2023/09/16 10:11:09;;;;;;;13.30;11.07;;;21.20;99.90;;;;;;4988201;28;20041;-85
2023/09/16 10:13:35;;;;;;;14.23;11.90;;;21.30;99.90;;;;;;4995890;28;20068;-84
2023/09/16 10:16:01;;;;;;;15.52;13.43;;;21.30;99.90;;;;;;5025014;28;20042;-84
2023/09/16 10:18:30;;;;;;;13.77;12.27;;;21.40;99.90;;;;;;4998109;28;20037;-83
2023/09/16 10:20:57;;;;;;;14.15;12.63;;;21.40;99.90;;;;;;5015428;28;20444;-84
2023/09/16 10:23:23;;;;;;;14.55;13.05;;;21.50;99.90;;;;;;5015084;28;20033;-83
2023/09/16 10:25:50;;;;;;;14.25;12.48;;;21.60;99.90;;;;;;5014767;28;20048;-83
2023/09/16 10:28:17;;;;;;;14.52;12.90;;;21.60;99.90;;;;;;4998776;28;20041;-83
2023/09/16 10:30:43;;;;;;;14.52;12.07;;;21.60;99.90;;;;;;5015089;28;20041;-84
2023/09/16 10:33:10;;;;;;;15.50;12.70;;;21.60;99.90;;;;;;5014389;28;20041;-83
2023/09/16 10:35:41;;;;;;;15.25;13.45;;;21.70;99.90;;;;;;5010737;28;20116;-83
2023/09/16 10:38:08;;;;;;;13.30;12.00;;;21.80;99.90;;;;;;5006494;28;20034;-83
2023/09/16 10:40:34;;;;;;;14.88;13.18;;;21.90;99.90;;;;;;5020879;28;20120;-84
2023/09/16 10:43:02;;;;;;;16.83;12.85;;;22.00;99.90;;;;;;5012695;28;20057;-82
2023/09/16 10:45:28;;;;;;;14.93;13.05;;;22.00;99.90;;;;;;5003802;28;20576;-83
2023/09/16 10:47:54;;;;;;;13.45;12.02;;;22.00;99.90;;;;;;5030432;28;20103;-84
2023/09/16 10:50:24;;;;;;;14.35;12.02;;;22.10;99.90;;;;;;4987976;28;20409;-84
2023/09/16 10:52:58;;;;;;;14.02;12.57;;;22.10;99.90;;;;;;5031494;28;20128;-83
2023/09/16 10:55:42;;;;;;;14.40;11.77;;;22.20;99.90;;;;;;5014316;28;20045;-84
2023/09/16 10:58:41;;;;;;;13.02;11.30;;;22.30;99.90;;;;;;5019824;28;20309;-83
2023/09/16 11:01:14;;;;;;;15.13;10.88;;;22.30;99.90;;;;;;5007819;28;20742;-83
2023/09/16 11:03:46;;;;;;;12.23;10.88;;;22.30;99.90;;;;;;5013405;28;20416;-84
2023/09/16 11:06:12;;;;;;;14.60;11.38;;;22.40;99.90;;;;;;5005687;28;20049;-84
2023/09/16 11:08:38;;;;;;;12.63;11.43;;;22.40;99.90;;;;;;5031245;28;20060;-84
2023/09/16 11:11:04;;;;;;;12.73;10.82;;;22.50;99.90;;;;;;4998506;28;20100;-83
2023/09/16 11:13:30;;;;;;;11.00;9.90;;;22.60;99.90;;;;;;5014190;28;20520;-83
2023/09/16 11:16:00;;;;;;;10.27;9.07;;;22.70;99.90;;;;;;5014387;28;20080;-85
2023/09/16 11:18:26;;;;;;;10.32;9.27;;;22.70;99.90;;;;;;5014275;28;20049;-84
2023/09/16 11:20:52;;;;;;;11.02;10.00;;;22.80;99.90;;;;;;4997946;28;20029;-84
2023/09/16 11:23:18;;;;;;;9.90;8.52;;;22.80;99.90;;;;;;5014200;28;20045;-84
2023/09/16 11:25:44;;;;;;;10.02;7.90;;;22.90;99.90;;;;;;4998158;28;20124;-84
2023/09/16 11:28:16;;;;;;;10.52;9.48;;;22.90;99.90;;;;;;5018201;28;20065;-85
2023/09/16 11:30:56;;;;;;;12.25;9.35;;;23.00;99.90;;;;;;5013892;28;20044;-85
2023/09/16 11:33:30;;;;;;;9.23;8.32;;;23.10;99.90;;;;;;5002594;28;20050;-84
2023/09/16 11:36:06;;;;;;;7.53;6.50;;;23.30;99.90;;;;;;5013678;28;20134;-83
2023/09/16 11:38:31;;;;;;;6.95;4.97;;;23.30;99.90;;;;;;5013549;28;20120;-84
2023/09/16 11:41:08;;;;;;;5.80;5.30;;;23.30;99.90;;;;;;4981111;28;20171;-84
2023/09/16 11:43:35;;;;;;;7.82;6.32;;;23.30;99.90;;;;;;5015429;28;20097;-84
2023/09/16 11:46:01;;;;;;;6.75;6.05;;;23.20;99.90;;;;;;5014270;28;20045;-84
2023/09/16 11:48:29;;;;;;;9.48;5.85;;;23.20;99.90;;;;;;5014161;28;20042;-84
2023/09/16 11:50:55;;;;;;;5.97;3.70;;;23.30;99.90;;;;;;4999519;28;20136;-85
2023/09/16 11:53:23;;;;;;;4.82;3.90;;;23.30;99.90;;;;;;4995939;28;20444;-84
2023/09/16 11:55:49;;;;;;;3.97;3.58;;;23.40;99.90;;;;;;4982201;28;20049;-84
2023/09/16 11:58:15;;;;;;;4.68;3.53;;;23.40;99.90;;;;;;5004866;28;20041;-84
2023/09/16 12:00:42;;;;;;;3.53;3.22;;;23.50;99.90;;;;;;5018312;28;20030;-83
2023/09/16 12:03:10;;;;;;;4.93;3.42;;;23.60;99.90;;;;;;5035490;28;20041;-84
2023/09/16 12:05:37;;;;;;;4.85;4.10;;;23.70;99.90;;;;;;5034135;28;20041;-83
2023/09/16 12:08:03;;;;;;;6.00;4.28;;;23.70;99.90;;;;;;5017969;28;20053;-84
2023/09/16 12:10:29;;;;;;;4.35;3.65;;;23.80;99.90;;;;;;5017027;28;20113;-83
2023/09/16 12:12:56;;;;;;;5.70;3.70;;;23.70;99.90;;;;;;5001548;28;20458;-83
2023/09/16 12:15:25;;;;;;;2.90;2.40;;;23.70;99.90;;;;;;5042197;28;20071;-80
2023/09/16 12:17:51;;;;;;;3.00;2.40;;;23.80;99.90;;;;;;5023672;28;20033;-83
2023/09/16 12:20:17;;;;;;;2.63;2.15;;;23.80;99.90;;;;;;4997254;28;20048;-83
2023/09/16 12:22:45;;;;;;;3.30;2.50;;;23.80;99.90;;;;;;5017612;28;20405;-84
2023/09/16 12:25:11;;;;;;;3.88;2.70;;;23.70;99.90;;;;;;5019722;28;20056;-84
2023/09/16 12:27:36;;;;;;;3.70;3.30;;;23.60;99.90;;;;;;4982244;28;20042;-83
2023/09/16 12:30:02;;;;;;;4.88;3.40;;;23.60;99.90;;;;;;5012038;28;20053;-84